createdAt,value
2017-08-12T00:00:03.092Z,2
2017-08-12T00:05:03.265Z,2
2017-08-12T00:10:02.751Z,2
2017-08-12T00:15:03.388Z,2
2017-08-12T00:20:02.945Z,1
2017-08-12T00:25:03.473Z,2
2017-08-12T00:30:02.976Z,2
2017-08-12T00:35:02.613Z,2
2017-08-12T00:40:03.138Z,2
2017-08-12T00:45:02.749Z,1
2017-08-12T00:50:03.349Z,1
2017-08-12T00:55:02.806Z,2
2017-08-12T01:00:03.212Z,2
2017-08-12T01:05:02.746Z,0
2017-08-12T01:10:03.255Z,5
2017-08-12T01:15:02.793Z,2
2017-08-12T01:20:03.510Z,0
2017-08-12T01:25:02.991Z,3
2017-08-12T01:30:03.403Z,2
2017-08-12T01:35:02.905Z,2
2017-08-12T01:40:03.515Z,3
2017-08-12T01:45:02.896Z,5
2017-08-12T01:50:03.583Z,4
2017-08-12T01:55:03.045Z,6
2017-08-12T02:00:02.600Z,3
2017-08-12T02:05:03.094Z,3
2017-08-12T02:10:02.843Z,3
2017-08-12T02:15:03.596Z,3
2017-08-12T02:20:03.235Z,2
2017-08-12T02:25:02.682Z,3
2017-08-12T02:30:03.291Z,4
2017-08-12T02:35:02.836Z,2
2017-08-12T02:40:03.559Z,3
2017-08-12T02:45:03.029Z,3
2017-08-12T02:50:03.489Z,4
2017-08-12T02:55:02.816Z,4
2017-08-12T03:00:03.313Z,4
2017-08-12T03:05:02.797Z,3
2017-08-12T03:10:03.393Z,3
2017-08-12T03:15:02.885Z,3
2017-08-12T03:20:03.321Z,7
2017-08-12T03:25:02.826Z,5
2017-08-12T03:30:04.530Z,6
2017-08-12T03:35:03.131Z,5
2017-08-12T03:40:02.617Z,6
2017-08-12T03:45:03.140Z,5
2017-08-12T03:50:02.614Z,5
2017-08-12T03:55:03.381Z,7
2017-08-12T04:00:02.872Z,6
2017-08-12T04:05:03.438Z,6
2017-08-12T04:10:02.870Z,5
2017-08-12T04:15:04.168Z,3
2017-08-12T04:20:02.562Z,3
2017-08-12T04:25:03.387Z,4
2017-08-12T04:30:02.964Z,3
2017-08-12T04:35:02.685Z,5
2017-08-12T04:40:03.441Z,5
2017-08-12T04:45:02.808Z,6
2017-08-12T04:50:03.251Z,5
2017-08-12T04:55:02.722Z,4
2017-08-12T05:00:03.877Z,4
2017-08-12T05:05:03.408Z,4
2017-08-12T05:10:02.867Z,5
2017-08-12T05:15:04.123Z,4
2017-08-12T05:20:03.695Z,4
2017-08-12T05:25:03.222Z,3
2017-08-12T05:30:02.627Z,6
2017-08-12T05:35:03.217Z,4
2017-08-12T05:40:02.794Z,4
2017-08-12T05:45:03.860Z,6
2017-08-12T05:50:03.466Z,5
2017-08-12T05:55:03.005Z,6
2017-08-12T06:00:02.749Z,4
2017-08-12T06:05:03.515Z,6
2017-08-12T06:10:03.204Z,6
2017-08-12T06:15:02.636Z,5
2017-08-12T06:20:03.404Z,8
2017-08-12T06:25:02.959Z,4
2017-08-12T06:30:03.572Z,6
2017-08-12T06:35:03.097Z,5
2017-08-12T06:40:02.696Z,6
2017-08-12T06:45:03.230Z,5
2017-08-12T06:50:02.871Z,5
2017-08-12T06:55:03.467Z,5
2017-08-12T07:00:03.117Z,7
2017-08-12T07:05:03.698Z,7
2017-08-12T07:10:03.348Z,6
2017-08-12T07:15:02.720Z,9
2017-08-12T07:20:03.315Z,7
2017-08-12T07:25:02.796Z,8
2017-08-12T07:30:03.530Z,7
2017-08-12T07:35:03.038Z,7
2017-08-12T07:40:02.603Z,5
2017-08-12T07:45:03.179Z,6
2017-08-12T07:50:02.894Z,6
2017-08-12T07:55:03.446Z,9
2017-08-12T08:00:02.842Z,5
2017-08-12T08:05:03.582Z,7
2017-08-12T08:10:03.129Z,9
2017-08-12T08:15:02.606Z,4
2017-08-12T08:20:03.034Z,6
2017-08-12T08:25:02.566Z,5
2017-08-12T08:30:03.125Z,8
2017-08-12T08:35:02.840Z,7
2017-08-12T08:40:03.357Z,6
2017-08-12T08:45:02.877Z,7
2017-08-12T08:50:03.313Z,12
2017-08-12T08:55:02.893Z,7
2017-08-12T09:00:03.446Z,7
2017-08-12T09:05:03.032Z,6
2017-08-12T09:10:02.644Z,8
2017-08-12T09:15:03.362Z,11
2017-08-12T09:20:02.892Z,8
2017-08-12T09:25:03.493Z,7
2017-08-12T09:30:02.931Z,8
2017-08-12T09:35:02.574Z,5
2017-08-12T09:40:03.164Z,7
2017-08-12T09:45:02.579Z,7
2017-08-12T09:50:03.214Z,9
2017-08-12T09:55:02.796Z,7
2017-08-12T10:00:03.438Z,6
2017-08-12T10:05:03.079Z,4
2017-08-12T10:10:02.650Z,7
2017-08-12T10:15:03.196Z,8
2017-08-12T10:20:02.789Z,7
2017-08-12T10:25:03.371Z,9
2017-08-12T10:30:02.909Z,4
2017-08-12T10:35:03.458Z,9
2017-08-12T10:40:03.003Z,8
2017-08-12T10:45:02.579Z,8
2017-08-12T10:50:03.121Z,4
2017-08-12T10:55:03.572Z,8
2017-08-12T11:00:02.968Z,8
2017-08-12T11:05:03.722Z,8
2017-08-12T11:10:03.214Z,7
2017-08-12T11:15:03.767Z,5
2017-08-12T11:20:03.373Z,5
2017-08-12T11:25:02.941Z,3
2017-08-12T11:30:03.484Z,7
2017-08-12T11:35:02.971Z,7
2017-08-12T11:40:03.603Z,5
2017-08-12T11:45:03.119Z,7
2017-08-12T11:50:02.808Z,10
2017-08-12T11:55:03.167Z,10
2017-08-12T12:00:02.748Z,8
2017-08-12T12:05:03.357Z,6
2017-08-12T12:10:02.912Z,6
2017-08-12T12:15:03.454Z,13
2017-08-12T12:20:02.966Z,8
2017-08-12T12:25:02.891Z,8
2017-08-12T12:30:03.334Z,10
2017-08-12T12:35:02.938Z,7
2017-08-12T12:40:03.426Z,10
2017-08-12T12:45:02.870Z,10
2017-08-12T12:50:03.336Z,7
2017-08-12T12:55:02.881Z,13
2017-08-12T13:00:03.270Z,8
2017-08-12T13:05:02.771Z,8
2017-08-12T13:10:03.338Z,4
2017-08-12T13:15:02.774Z,5
2017-08-12T13:20:03.199Z,8
2017-08-12T13:25:02.780Z,10
2017-08-12T13:30:03.358Z,6
2017-08-12T13:35:03.146Z,7
2017-08-12T13:40:02.573Z,12
2017-08-12T13:45:03.041Z,7
2017-08-12T13:50:03.550Z,8
2017-08-12T13:55:02.940Z,11
2017-08-12T14:00:03.564Z,7
2017-08-12T14:05:03.210Z,13
2017-08-12T14:10:02.842Z,5
2017-08-12T14:15:03.300Z,6
2017-08-12T14:20:02.783Z,8
2017-08-12T14:25:03.301Z,5
2017-08-12T14:30:02.796Z,10
2017-08-12T14:35:03.417Z,6
2017-08-12T14:40:02.998Z,9
2017-08-12T14:45:03.553Z,6
2017-08-12T14:50:02.983Z,6
2017-08-12T14:54:05.045Z,6
2017-08-12T14:55:03.575Z,6
2017-08-12T15:00:03.123Z,7
2017-08-12T15:05:02.586Z,8
2017-08-12T15:10:03.101Z,8
2017-08-12T15:15:02.610Z,8
2017-08-12T15:20:03.326Z,5
2017-08-12T15:25:02.757Z,5
2017-08-12T15:35:02.896Z,10
2017-08-12T15:40:03.532Z,8
2017-08-12T15:45:02.904Z,9
2017-08-12T15:50:03.481Z,9
2017-08-12T15:55:03.095Z,12
2017-08-12T16:00:02.614Z,7
2017-08-12T16:05:03.086Z,6
2017-08-12T16:10:02.666Z,9
2017-08-12T16:15:03.203Z,5
2017-08-12T16:20:02.630Z,2
2017-08-12T16:25:03.081Z,3
2017-08-12T16:30:02.713Z,5
2017-08-12T16:35:03.316Z,6
2017-08-12T16:40:02.914Z,4
2017-08-12T16:45:03.352Z,5
2017-08-12T16:50:02.777Z,3
2017-08-12T16:55:03.439Z,2
2017-08-12T17:00:02.868Z,3
2017-08-12T17:05:03.517Z,2
2017-08-12T17:10:03.168Z,4
2017-08-12T17:15:02.595Z,2
2017-08-12T17:20:03.298Z,4
2017-08-12T17:25:02.866Z,2
2017-08-12T17:30:03.626Z,2
2017-08-12T17:35:03.259Z,0
2017-08-12T17:40:02.729Z,2
2017-08-12T17:45:03.412Z,2
2017-08-12T17:50:02.815Z,2
2017-08-12T17:55:03.379Z,0
2017-08-12T18:00:02.958Z,0
2017-08-12T18:05:03.574Z,0
2017-08-12T18:10:03.175Z,0
2017-08-12T18:15:02.740Z,0
2017-08-12T18:20:03.344Z,0
2017-08-12T18:25:02.784Z,0
2017-08-12T18:30:03.507Z,2
2017-08-12T18:35:03.044Z,0
2017-08-12T18:40:02.602Z,1
2017-08-12T18:45:03.366Z,1
2017-08-12T18:50:02.804Z,2
2017-08-12T18:55:03.248Z,3
2017-08-12T19:00:02.718Z,1
2017-08-12T19:05:03.346Z,2
2017-08-12T19:10:02.913Z,2
2017-08-12T19:15:03.323Z,2
2017-08-12T19:20:02.791Z,2
2017-08-12T19:25:03.371Z,2
2017-08-12T19:30:02.903Z,1
2017-08-12T19:35:03.603Z,2
2017-08-12T19:40:03.429Z,1
2017-08-12T19:45:02.930Z,3
2017-08-12T19:55:03.339Z,2
2017-08-12T20:00:02.711Z,0
2017-08-12T20:05:03.345Z,0
2017-08-12T20:10:02.939Z,1
2017-08-12T20:15:03.505Z,0
2017-08-12T20:20:03.013Z,0
2017-08-12T20:25:02.753Z,0
2017-08-12T20:30:03.361Z,0
2017-08-12T20:35:02.951Z,0
2017-08-12T20:45:03.409Z,0
2017-08-12T20:50:02.804Z,0
2017-08-12T20:55:03.240Z,0
2017-08-12T21:00:02.953Z,0
2017-08-12T21:05:03.589Z,0
2017-08-12T21:10:03.233Z,0
2017-08-12T21:15:02.666Z,0
2017-08-12T21:20:03.257Z,0
2017-08-12T21:25:02.657Z,0
2017-08-12T21:30:03.518Z,0
2017-08-12T21:35:03.002Z,0
2017-08-12T21:40:03.524Z,0
2017-08-12T21:45:03.000Z,0
2017-08-12T21:50:03.560Z,0
2017-08-12T21:55:02.924Z,0
2017-08-12T22:00:03.540Z,0
2017-08-12T22:05:02.958Z,0
2017-08-12T22:10:02.692Z,0
2017-08-12T22:15:03.099Z,0
2017-08-12T22:20:02.803Z,0
2017-08-12T22:25:03.368Z,0
2017-08-12T22:30:02.770Z,0
2017-08-12T22:35:03.308Z,0
2017-08-12T22:40:02.923Z,0
2017-08-12T22:45:03.536Z,0
2017-08-12T22:50:02.948Z,0
2017-08-12T22:55:02.585Z,0
2017-08-12T23:00:03.435Z,0
2017-08-12T23:05:02.693Z,0
2017-08-12T23:10:03.434Z,0
2017-08-12T23:15:02.877Z,0
2017-08-12T23:20:03.484Z,0
2017-08-12T23:25:02.949Z,0
2017-08-12T23:30:03.371Z,0
2017-08-12T23:35:02.909Z,0
2017-08-12T23:40:03.635Z,0
2017-08-12T23:45:03.210Z,0
2017-08-12T23:50:02.599Z,0
2017-08-12T23:55:03.049Z,0
